Time;durP1;ratioP1;P1;durP2;ratioP2;P2;SDS_P1;SDS_P2;PMS_P1;PMS_P2;Temp;Humidity;BMP_temperature;BMP_pressure;BME280_temperature;BME280_humidity;BME280_pressure;Samples;Min_cycle;Max_cycle;Signal;HPM_P1;HPM_P2
2021/08/08 00:01:22;;;;;;;9.18;1.90;;;;;;;14.93;100.00;96949.09;5030098;28;20046;-83
2021/08/08 00:03:49;;;;;;;7.40;1.88;;;;;;;14.96;100.00;96942.91;5051158;28;20056;-85
2021/08/08 00:06:29;;;;;;;5.07;2.03;;;;;;;14.88;100.00;96943.91;5068450;28;20037;-85
2021/08/08 00:08:56;;;;;;;3.75;2.10;;;;;;;14.93;100.00;96953.75;5067815;28;20233;-85
2021/08/08 00:11:23;;;;;;;6.97;2.13;;;;;;;14.97;100.00;96955.38;5066336;28;20052;-83
2021/08/08 00:13:49;;;;;;;4.72;2.20;;;;;;;15.01;100.00;96943.75;5057531;23;20499;-86
2021/08/08 00:16:16;;;;;;;4.43;2.10;;;;;;;14.97;100.00;96952.66;5064224;28;20052;-87
2021/08/08 00:18:43;;;;;;;9.70;2.00;;;;;;;14.94;100.00;96958.81;5063281;28;20144;-85
2021/08/08 00:21:09;;;;;;;12.43;2.30;;;;;;;14.90;100.00;96951.72;5081193;28;20048;-85
2021/08/08 00:23:36;;;;;;;15.48;2.78;;;;;;;14.89;100.00;96969.25;5043749;28;20045;-87
2021/08/08 00:26:05;;;;;;;10.85;2.67;;;;;;;14.90;100.00;96960.69;5082333;28;20041;-87
2021/08/08 00:28:31;;;;;;;8.73;2.22;;;;;;;14.91;100.00;96961.50;5089480;28;20052;-87
2021/08/08 00:30:58;;;;;;;7.10;2.45;;;;;;;14.96;100.00;96978.34;5066836;28;20060;-86
2021/08/08 00:33:25;;;;;;;9.98;2.25;;;;;;;14.85;100.00;96950.09;5058291;28;20055;-88
2021/08/08 00:35:52;;;;;;;7.88;2.75;;;;;;;14.91;100.00;96943.22;5056521;28;20069;-89
2021/08/08 00:38:19;;;;;;;7.15;2.28;;;;;;;14.87;100.00;96936.88;5068917;28;20052;-86
2021/08/08 00:40:46;;;;;;;5.03;2.70;;;;;;;14.92;100.00;96958.41;5070338;28;20123;-86
2021/08/08 00:43:18;;;;;;;12.10;2.42;;;;;;;14.92;100.00;96958.41;5021455;28;20053;-86
2021/08/08 00:45:45;;;;;;;5.00;2.17;;;;;;;14.90;100.00;96951.72;5036036;28;20060;-87
2021/08/08 00:48:12;;;;;;;6.78;2.35;;;;;;;14.92;100.00;96954.88;5037015;28;20053;-87
2021/08/08 00:50:38;;;;;;;6.88;2.40;;;;;;;14.94;100.00;96958.81;5036975;28;20056;-86
2021/08/08 00:53:06;;;;;;;16.63;2.70;;;;;;;14.90;100.00;96957.97;5037199;28;20048;-86
2021/08/08 00:55:33;;;;;;;5.57;2.42;;;;;;;14.92;100.00;96950.22;5038303;28;20045;-86
2021/08/08 00:58:00;;;;;;;7.07;2.45;;;;;;;14.97;100.00;96930.84;5041396;28;20042;-87
2021/08/08 01:00:27;;;;;;;8.40;2.25;;;;;;;14.95;100.00;96924.19;5042262;28;20049;-86
2021/08/08 01:03:04;;;;;;;9.75;2.22;;;;;;;15.07;100.00;96925.97;5038373;28;20066;-87
2021/08/08 01:05:43;;;;;;;8.73;2.28;;;;;;;14.93;100.00;96910.91;5070026;28;20056;-87
2021/08/08 01:08:16;;;;;;;3.67;2.10;;;;;;;14.76;100.00;96905.13;5052817;28;20172;-85
2021/08/08 01:10:45;;;;;;;6.85;2.13;;;;;;;14.87;100.00;96925.97;5044529;28;20045;-88
2021/08/08 01:13:12;;;;;;;8.60;2.38;;;;;;;14.92;100.00;96943.97;5082257;28;20060;-87
2021/08/08 01:15:40;;;;;;;8.88;2.30;;;;;;;14.82;100.00;96929.00;5041949;28;20052;-88
2021/08/08 01:18:12;;;;;;;4.57;2.20;;;;;;;14.90;100.00;96947.06;5037098;28;20486;-87
2021/08/08 01:20:41;;;;;;;6.53;2.25;;;;;;;14.85;100.00;96943.84;5038441;28;20041;-86
2021/08/08 01:23:13;;;;;;;7.45;2.30;;;;;;;14.81;100.00;96941.03;5041714;28;20045;-87
2021/08/08 01:25:42;;;;;;;6.10;2.40;;;;;;;14.85;100.00;96949.28;5024394;28;20050;-84
2021/08/08 01:28:12;;;;;;;6.20;1.83;;;;;;;14.87;100.00;96952.44;5057674;28;20041;-88
2021/08/08 01:30:39;;;;;;;8.57;2.42;;;;;;;14.87;100.00;96953.22;5040860;28;20041;-86
2021/08/08 01:33:08;;;;;;;8.32;2.30;;;;;;;14.84;100.00;96947.72;5072568;28;20106;-87
2021/08/08 01:35:36;;;;;;;12.13;2.40;;;;;;;14.63;100.00;96939.91;5039572;28;20053;-88
2021/08/08 01:38:03;;;;;;;6.65;2.55;;;;;;;14.51;100.00;96922.88;5056762;28;20442;-87
2021/08/08 01:40:42;;;;;;;7.95;2.53;;;;;;;14.63;100.00;96958.97;5039096;28;20051;-87
2021/08/08 01:43:19;;;;;;;10.73;2.45;;;;;;;14.51;100.00;96934.56;5056053;28;20053;-89
2021/08/08 01:45:47;;;;;;;11.70;2.80;;;;;;;14.41;100.00;96918.81;5055312;28;20091;-85
2021/08/08 01:48:16;;;;;;;7.85;2.80;;;;;;;14.42;100.00;96923.09;5040507;28;20062;-84
2021/08/08 01:50:43;;;;;;;12.90;2.55;;;;;;;14.51;100.00;96947.41;5072074;28;20059;-87
2021/08/08 01:53:11;;;;;;;6.40;2.75;;;;;;;14.55;100.00;96946.34;5038257;28;20068;-89
2021/08/08 01:55:38;;;;;;;7.47;2.20;;;;;;;14.60;100.00;96965.13;5036652;28;20052;-87
2021/08/08 01:58:05;;;;;;;12.98;2.30;;;;;;;14.61;100.00;96952.28;5039325;28;20099;-85
2021/08/08 02:00:32;;;;;;;8.35;2.25;;;;;;;14.63;100.00;96950.00;5037624;28;20084;-85
2021/08/08 02:03:02;;;;;;;9.05;2.33;;;;;;;14.55;100.00;96956.44;5038868;28;20056;-84
2021/08/08 02:05:30;;;;;;;5.65;2.10;;;;;;;14.55;100.00;96948.28;5068841;28;20037;-85
2021/08/08 02:07:57;;;;;;;8.25;2.33;;;;;;;14.52;100.00;96947.06;5053396;28;20060;-86
2021/08/08 02:10:23;;;;;;;7.35;2.20;;;;;;;14.46;100.00;96939.50;5052018;28;20045;-85
2021/08/08 02:12:50;;;;;;;12.13;2.72;;;;;;;14.43;100.00;96949.19;5052009;28;20383;-84
2021/08/08 02:15:17;;;;;;;7.97;2.13;;;;;;;14.41;100.00;96943.31;5035818;28;20042;-83
2021/08/08 02:17:43;;;;;;;6.88;2.45;;;;;;;14.39;100.00;96950.25;5035375;28;20049;-86
2021/08/08 02:20:15;;;;;;;8.05;2.20;;;;;;;14.37;100.00;96953.34;5084631;28;20029;-90
2021/08/08 02:22:44;;;;;;;8.43;2.55;;;;;;;14.32;100.00;96957.13;5053991;28;20055;-88
2021/08/08 02:25:12;;;;;;;7.90;2.20;;;;;;;14.40;100.00;96952.59;5076503;28;20038;-88
2021/08/08 02:27:40;;;;;;;4.78;1.85;;;;;;;14.44;100.00;96958.94;5077832;28;20081;-87
2021/08/08 02:30:08;;;;;;;7.43;2.10;;;;;;;14.48;100.00;96964.47;5054997;28;20453;-88
2021/08/08 02:32:36;;;;;;;14.60;2.47;;;;;;;14.44;100.00;96966.31;5038958;28;20045;-87
2021/08/08 02:35:03;;;;;;;8.13;1.83;;;;;;;14.46;100.00;96974.91;5074345;28;20057;-87
2021/08/08 02:37:29;;;;;;;10.55;2.40;;;;;;;14.44;100.00;96979.94;5045551;28;20041;-85
2021/08/08 02:39:56;;;;;;;8.13;1.80;;;;;;;14.46;100.00;96983.88;5074950;28;20059;-89
2021/08/08 02:42:23;;;;;;;8.48;2.10;;;;;;;14.45;100.00;96997.88;5042642;28;20068;-88
2021/08/08 02:44:50;;;;;;;10.98;1.80;;;;;;;14.51;100.00;96994.50;5042018;28;20089;-88
2021/08/08 02:47:16;;;;;;;6.45;1.90;;;;;;;14.52;100.00;96998.00;5056488;28;20049;-89
2021/08/08 02:49:45;;;;;;;7.35;1.95;;;;;;;14.51;100.00;97002.66;5053776;28;20049;-86
2021/08/08 02:52:12;;;;;;;5.80;2.00;;;;;;;14.51;100.00;97008.09;5037685;28;20034;-88
2021/08/08 02:54:43;;;;;;;8.13;1.90;;;;;;;14.48;100.00;97014.25;5037403;28;20451;-87
2021/08/08 02:57:09;;;;;;;10.90;2.17;;;;;;;14.52;100.00;97015.16;5037335;28;20056;-88
2021/08/08 02:59:36;;;;;;;7.82;2.10;;;;;;;14.57;100.00;97012.16;5037549;28;20096;-85
2021/08/08 03:02:07;;;;;;;9.40;2.10;;;;;;;14.51;100.00;97010.03;5037562;28;20056;-88
2021/08/08 03:04:33;;;;;;;7.20;2.00;;;;;;;14.58;100.00;97013.72;5052615;28;20070;-88
2021/08/08 03:07:00;;;;;;;8.38;1.90;;;;;;;14.63;100.00;97018.13;5035624;28;20121;-87
2021/08/08 03:09:27;;;;;;;6.70;1.73;;;;;;;14.69;100.00;97013.94;5019137;28;20140;-88
2021/08/08 03:11:54;;;;;;;9.20;1.73;;;;;;;14.75;100.00;97020.72;5037038;28;20091;-89
2021/08/08 03:14:21;;;;;;;3.60;1.73;;;;;;;14.69;100.00;97024.84;5037215;28;20052;-89
2021/08/08 03:16:50;;;;;;;4.20;1.90;;;;;;;14.68;100.00;97034.97;5052831;28;20038;-88
2021/08/08 03:19:17;;;;;;;5.40;1.80;;;;;;;14.51;100.00;97010.03;5053213;28;20041;-89
2021/08/08 03:21:44;;;;;;;7.95;1.70;;;;;;;14.61;100.00;97029.34;5018007;28;20053;-87
2021/08/08 03:24:10;;;;;;;5.13;1.70;;;;;;;14.62;100.00;97030.16;5035606;28;20053;-86
2021/08/08 03:26:37;;;;;;;10.45;1.80;;;;;;;14.63;100.00;97045.34;5038135;28;20049;-87
2021/08/08 03:29:04;;;;;;;7.95;1.50;;;;;;;14.46;100.00;97007.59;5037382;28;20052;-89
2021/08/08 03:31:30;;;;;;;7.03;1.42;;;;;;;14.74;100.00;97049.88;5050376;28;20022;-89
2021/08/08 03:33:57;;;;;;;4.38;1.50;;;;;;;14.67;100.00;97040.75;5055551;28;20097;-85
2021/08/08 03:36:27;;;;;;;5.82;1.55;;;;;;;14.68;100.00;97043.16;5047896;28;20109;-88
2021/08/08 03:38:54;;;;;;;6.20;1.63;;;;;;;14.81;100.00;97049.25;5044403;28;20290;-90
2021/08/08 03:41:21;;;;;;;9.00;1.52;;;;;;;14.70;100.00;97046.31;5043515;28;20088;-89
2021/08/08 03:43:50;;;;;;;7.80;1.90;;;;;;;14.69;100.00;97050.16;5038494;28;20051;-85
2021/08/08 03:46:16;;;;;;;7.82;1.33;;;;;;;14.61;100.00;97064.75;5033045;28;20093;-87
2021/08/08 03:48:43;;;;;;;9.52;1.40;;;;;;;14.59;100.00;97068.97;5034313;28;20079;-85
2021/08/08 03:51:09;;;;;;;4.28;1.60;;;;;;;14.61;100.00;97075.66;5016048;28;20049;-85
2021/08/08 03:53:36;;;;;;;4.65;1.75;;;;;;;14.47;100.00;97050.84;5033944;28;20050;-86
2021/08/08 03:56:03;;;;;;;5.63;1.48;;;;;;;14.72;100.00;97093.03;5032310;28;20140;-83
2021/08/08 03:58:30;;;;;;;7.45;1.40;;;;;;;14.65;100.00;97092.09;5049682;28;20044;-86
2021/08/08 04:01:00;;;;;;;5.22;1.30;;;;;;;14.62;100.00;97095.53;5032569;28;20129;-83
2021/08/08 04:03:29;;;;;;;3.10;1.20;;;;;;;14.72;100.00;97092.25;5036212;28;20045;-89
2021/08/08 04:05:55;;;;;;;4.03;1.20;;;;;;;14.58;100.00;97084.53;5067709;28;20057;-85
2021/08/08 04:08:22;;;;;;;8.52;1.38;;;;;;;14.55;100.00;97085.25;5052480;28;20049;-88
2021/08/08 04:10:49;;;;;;;9.48;1.33;;;;;;;14.54;100.00;97091.84;5051565;28;20049;-85
2021/08/08 04:13:15;;;;;;;10.70;1.40;;;;;;;14.54;100.00;97091.84;5044958;28;20052;-87
2021/08/08 04:15:43;;;;;;;3.70;1.20;;;;;;;14.57;100.00;97093.06;5049446;28;20041;-87
2021/08/08 04:18:12;;;;;;;3.95;1.40;;;;;;;14.29;100.00;97072.16;5033215;28;20049;-87
2021/08/08 04:20:40;;;;;;;6.53;1.50;;;;;;;14.42;100.00;97100.13;5044016;28;20324;-89
2021/08/08 04:23:08;;;;;;;7.22;1.45;;;;;;;14.44;100.00;97086.13;5067137;28;20045;-86
2021/08/08 04:25:35;;;;;;;5.75;1.30;;;;;;;14.40;100.00;97083.31;5045947;28;20115;-84
2021/08/08 04:28:02;;;;;;;4.88;1.40;;;;;;;14.51;100.00;97094.47;5038392;28;20042;-87
2021/08/08 04:30:31;;;;;;;3.78;1.20;;;;;;;14.52;100.00;97104.22;5052771;28;20067;-88
2021/08/08 04:32:57;;;;;;;5.22;1.50;;;;;;;14.54;100.00;97127.25;5058544;28;20052;-89
2021/08/08 04:35:24;;;;;;;3.72;1.42;;;;;;;14.48;100.00;97111.53;5057949;28;20075;-87
2021/08/08 04:37:51;;;;;;;4.30;1.40;;;;;;;14.54;100.00;97132.69;5074481;28;20040;-88
2021/08/08 04:40:21;;;;;;;6.30;1.52;;;;;;;14.54;100.00;97137.34;5041942;28;20116;-85
2021/08/08 04:42:48;;;;;;;5.80;1.55;;;;;;;14.56;100.00;97132.34;5068365;28;20052;-91
2021/08/08 04:45:18;;;;;;;5.35;1.42;;;;;;;14.58;100.00;97149.16;5052493;28;20056;-89
2021/08/08 04:47:45;;;;;;;5.43;1.23;;;;;;;14.61;100.00;97149.22;5059492;28;20099;-86
2021/08/08 04:50:15;;;;;;;5.53;1.23;;;;;;;14.64;100.00;97155.88;5057516;28;20036;-87
2021/08/08 04:52:42;;;;;;;5.00;1.40;;;;;;;14.67;100.00;97147.81;5056518;28;20486;-86
2021/08/08 04:55:11;;;;;;;4.93;1.30;;;;;;;14.68;100.00;97141.22;5058178;28;20048;-87
2021/08/08 04:57:38;;;;;;;4.07;1.10;;;;;;;14.78;100.00;97129.00;5040695;28;20144;-85
2021/08/08 05:00:06;;;;;;;4.97;1.25;;;;;;;14.90;100.00;97134.31;5059941;28;20060;-84
2021/08/08 05:02:33;;;;;;;3.28;1.23;;;;;;;15.04;100.00;97150.22;5065222;28;20104;-83
2021/08/08 05:05:05;;;;;;;2.42;1.30;;;;;;;15.09;100.00;97130.84;5076932;28;20082;-89
2021/08/08 05:07:36;;;;;;;7.78;1.40;;;;;;;15.21;100.00;97144.34;5076969;28;20059;-88
2021/08/08 05:10:02;;;;;;;5.53;1.08;;;;;;;15.28;100.00;97139.84;5075225;28;20028;-90
2021/08/08 05:12:29;;;;;;;1.80;1.02;;;;;;;15.33;100.00;97145.03;5088795;28;20039;-89
2021/08/08 05:14:59;;;;;;;2.28;0.93;;;;;;;15.24;100.00;97127.28;5045500;28;20049;-78
2021/08/08 05:17:25;;;;;;;5.22;1.10;;;;;;;15.49;100.00;97153.97;5056757;28;20405;-86
2021/08/08 05:19:54;;;;;;;4.07;1.20;;;;;;;15.51;100.00;97142.72;5034363;28;20069;-85
2021/08/08 05:22:20;;;;;;;3.03;1.25;;;;;;;15.43;100.00;97124.59;5060164;28;20041;-87
2021/08/08 05:24:53;;;;;;;5.13;1.02;;;;;;;15.74;100.00;97154.50;5037427;28;20494;-88
2021/08/08 05:27:20;;;;;;;3.63;1.10;;;;;;;15.77;100.00;97140.09;5035785;28;20111;-84
2021/08/08 05:29:48;;;;;;;3.50;1.10;;;;;;;15.77;100.00;97139.34;5053966;28;20437;-87
2021/08/08 05:32:20;;;;;;;8.25;1.25;;;;;;;15.98;100.00;97159.63;5035803;28;20076;-85
2021/08/08 05:34:47;;;;;;;2.08;0.90;;;;;;;15.95;100.00;97157.63;5031792;28;20053;-82
2021/08/08 05:37:14;;;;;;;4.75;1.00;;;;;;;16.01;100.00;97164.38;5032715;28;20049;-83
2021/08/08 05:39:45;;;;;;;3.20;0.98;;;;;;;15.98;100.00;97145.97;5031821;28;20041;-85
2021/08/08 05:42:33;;;;;;;4.35;0.98;;;;;;;15.97;100.00;97135.44;5035258;28;20521;-88
2021/08/08 05:45:05;;;;;;;3.70;0.93;;;;;;;16.02;100.00;97130.47;5032122;28;20045;-87
2021/08/08 05:47:31;;;;;;;4.95;1.45;;;;;;;16.23;100.00;97159.31;5049084;28;20037;-84
2021/08/08 05:50:11;;;;;;;2.55;1.08;;;;;;;16.25;100.00;97152.34;5052086;28;20056;-87
2021/08/08 05:52:48;;;;;;;2.08;0.93;;;;;;;16.20;100.00;97138.97;5069147;28;20609;-87
2021/08/08 05:55:17;;;;;;;5.70;1.27;;;;;;;16.34;100.00;97158.34;5038886;28;20091;-87
2021/08/08 05:57:44;;;;;;;4.40;1.20;;;;;;;16.48;100.00;97160.53;5037004;28;20115;-89
2021/08/08 06:00:14;;;;;;;5.53;1.02;;;;;;;16.49;100.00;97165.63;5052228;28;20079;-87
2021/08/08 06:02:41;;;;;;;4.00;1.10;;;;;;;16.54;100.00;97170.03;5046300;28;20057;-85
2021/08/08 06:05:09;;;;;;;4.15;0.80;;;;;;;16.56;100.00;97162.28;5039818;28;20043;-87
2021/08/08 06:07:35;;;;;;;5.28;0.80;;;;;;;16.70;100.00;97176.16;5047507;28;20136;-84
2021/08/08 06:10:05;;;;;;;4.75;0.80;;;;;;;16.73;100.00;97172.69;5051825;28;20088;-87
2021/08/08 06:12:34;;;;;;;4.47;1.13;;;;;;;16.58;100.00;97143.56;5041258;28;20112;-86
2021/08/08 06:15:01;;;;;;;5.38;0.93;;;;;;;16.85;100.00;97180.72;5046727;28;20045;-88
2021/08/08 06:17:32;;;;;;;7.82;1.08;;;;;;;16.93;100.00;97189.81;5051223;28;20041;-86
2021/08/08 06:19:59;;;;;;;6.40;0.90;;;;;;;16.84;100.00;97173.66;5020244;28;20504;-86
2021/08/08 06:22:29;;;;;;;6.25;1.02;;;;;;;16.91;100.00;97192.91;5060514;28;20060;-88
2021/08/08 06:24:59;;;;;;;5.63;0.90;;;;;;;17.02;100.00;97210.28;5071240;23;20539;-77
2021/08/08 06:27:25;;;;;;;5.28;1.00;;;;;;;17.09;100.00;97217.78;5051392;28;20123;-79
2021/08/08 06:29:52;;;;;;;8.02;0.90;;;;;;;17.09;100.00;97209.59;5055539;28;20049;-80
2021/08/08 06:32:18;;;;;;;7.30;1.05;;;;;;;17.18;100.00;97212.88;5028919;28;20526;-78
2021/08/08 06:34:45;;;;;;;8.57;0.98;;;;;;;17.26;100.00;97220.84;5028066;28;20148;-78
2021/08/08 06:37:13;;;;;;;3.42;1.00;;;;;;;17.27;100.00;97211.44;5031483;28;20140;-77
2021/08/08 06:39:41;;;;;;;5.22;0.88;;;;;;;17.31;100.00;97212.31;5023201;28;20046;-78
2021/08/08 06:42:07;;;;;;;7.15;1.00;;;;;;;17.28;100.00;97226.72;5035181;28;20045;-77
2021/08/08 06:44:34;;;;;;;1.30;0.65;;;;;;;17.27;100.00;97227.06;5036326;28;20120;-77
2021/08/08 06:47:01;;;;;;;2.95;1.10;;;;;;;17.39;100.00;97235.09;5048670;28;20064;-77
2021/08/08 06:49:29;;;;;;;3.65;1.10;;;;;;;17.38;100.00;97222.56;5060541;28;20049;-78
2021/08/08 06:51:55;;;;;;;3.13;0.90;;;;;;;17.39;100.00;97203.00;5063139;28;20116;-77
2021/08/08 06:54:23;;;;;;;2.15;0.68;;;;;;;17.59;100.00;97230.31;5075705;28;20052;-78
2021/08/08 06:56:50;;;;;;;7.78;1.00;;;;;;;17.34;100.00;97211.53;5058820;28;20100;-80
2021/08/08 06:59:16;;;;;;;8.57;0.90;;;;;;;17.51;100.00;97215.69;5051620;28;20462;-82
2021/08/08 07:01:43;;;;;;;3.42;0.95;;;;;;;17.58;100.00;97236.94;5048899;28;20053;-79
2021/08/08 07:04:10;;;;;;;6.65;1.10;;;;;;;17.67;100.00;97234.72;5037909;28;20519;-79
2021/08/08 07:06:36;;;;;;;6.15;0.90;;;;;;;17.84;100.00;97242.38;5011231;28;20041;-80
2021/08/08 07:09:07;;;;;;;4.28;0.90;;;;;;;17.90;100.00;97230.75;5027716;28;20049;-79
2021/08/08 07:11:37;;;;;;;4.60;1.02;;;;;;;17.98;100.00;97237.88;5028602;28;20132;-81
2021/08/08 07:14:04;;;;;;;3.17;0.90;;;;;;;18.20;100.00;97238.91;5027179;28;20451;-80
2021/08/08 07:16:31;;;;;;;6.65;0.90;;;;;;;18.28;100.00;97239.78;5035907;28;20068;-78
2021/08/08 07:18:59;;;;;;;4.43;0.75;;;;;;;18.13;100.00;97251.75;5053043;28;20029;-81
2021/08/08 07:21:25;;;;;;;3.90;0.90;;;;;;;17.96;100.00;97253.13;5068321;28;20121;-82
2021/08/08 07:24:11;;;;;;;4.78;0.80;;;;;;;18.05;100.00;97248.13;5069862;28;20047;-81
2021/08/08 07:26:40;;;;;;;2.65;0.73;;;;;;;17.88;100.00;97246.75;5047548;28;20049;-80
2021/08/08 07:29:10;;;;;;;3.53;0.70;;;;;;;17.95;100.00;97260.53;5028011;28;20033;-79
2021/08/08 07:31:51;;;;;;;2.42;0.80;;;;;;;18.00;100.00;97256.69;5038343;28;20343;-80
2021/08/08 07:34:17;;;;;;;1.90;0.80;;;;;;;18.18;100.00;97257.69;5034278;28;20107;-79
2021/08/08 07:36:45;;;;;;;3.30;1.10;;;;;;;18.12;100.00;97248.22;5036718;28;20053;-80
2021/08/08 07:39:12;;;;;;;2.00;0.60;;;;;;;18.20;100.00;97260.03;5058040;28;20057;-80
2021/08/08 07:41:38;;;;;;;2.30;0.75;;;;;;;18.30;100.00;97249.22;5049122;28;20494;-80
2021/08/08 07:44:05;;;;;;;4.50;0.70;;;;;;;18.51;100.00;97259.66;5048302;28;20063;-80
2021/08/08 07:46:32;;;;;;;5.13;0.95;;;;;;;18.56;100.00;97262.84;5047029;28;20036;-80
2021/08/08 07:48:58;;;;;;;8.02;0.80;;;;;;;18.56;100.00;97262.84;5032734;28;20057;-80
2021/08/08 07:51:26;;;;;;;3.47;0.80;;;;;;;18.44;100.00;97271.31;5049996;28;20057;-80
2021/08/08 07:53:53;;;;;;;3.90;0.90;;;;;;;18.50;100.00;97269.06;5040502;28;20375;-79
2021/08/08 07:56:20;;;;;;;4.63;0.85;;;;;;;18.74;100.00;97271.25;5029484;28;20510;-79
2021/08/08 07:58:46;;;;;;;6.65;0.80;;;;;;;18.85;100.00;97263.13;5011433;28;20072;-80
2021/08/08 08:01:13;;;;;;;2.10;1.00;;;;;;;18.78;100.00;97268.56;5026530;28;20454;-79
2021/08/08 08:03:40;;;;;;;8.57;0.80;;;;;;;18.80;100.00;97280.72;5035885;28;20045;-80
2021/08/08 08:06:06;;;;;;;3.67;0.70;;;;;;;18.84;100.00;97272.53;5011780;28;20560;-81
2021/08/08 08:08:33;;;;;;;3.80;0.80;;;;;;;18.81;100.00;97281.53;5026558;28;20037;-78
2021/08/08 08:11:00;;;;;;;2.40;0.73;;;;;;;18.95;100.00;97287.13;5032032;28;20080;-81
2021/08/08 08:13:26;;;;;;;2.42;0.80;;;;;;;18.85;100.00;97293.31;5014548;28;20045;-80
2021/08/08 08:15:53;;;;;;;1.75;0.70;;;;;;;19.02;100.00;97292.72;5031800;28;20041;-80
2021/08/08 08:18:20;;;;;;;2.85;0.70;;;;;;;19.14;100.00;97297.91;5033667;28;20067;-82
2021/08/08 08:20:47;;;;;;;5.00;0.75;;;;;;;19.59;100.00;97297.50;5031918;28;20048;-80
2021/08/08 08:23:13;;;;;;;2.22;0.80;;;;;;;19.59;100.00;97296.75;5032161;28;20049;-80
2021/08/08 08:25:40;;;;;;;4.07;0.90;;;;;;;19.33;100.00;97310.63;5035138;28;20408;-81
2021/08/08 08:28:06;;;;;;;8.07;0.85;;;;;;;19.34;100.00;97304.75;5034311;28;20537;-79
2021/08/08 08:30:33;;;;;;;2.35;0.50;;;;;;;19.28;100.00;97311.72;5032405;28;20045;-85
2021/08/08 08:33:04;;;;;;;4.47;0.98;;;;;;;19.38;100.00;97307.56;5033443;28;20049;-81
2021/08/08 08:35:40;;;;;;;2.58;0.75;;;;;;;19.18;100.00;97326.94;5015685;28;20045;-80
2021/08/08 08:38:07;;;;;;;1.88;0.70;;;;;;;19.06;100.00;97316.25;5051427;28;20045;-79
2021/08/08 08:40:36;;;;;;;3.97;0.93;;;;;;;19.24;100.00;97316.41;5042935;28;20049;-80
2021/08/08 08:43:06;;;;;;;3.85;1.00;;;;;;;19.07;100.00;97312.34;5048341;28;20579;-80
2021/08/08 08:45:36;;;;;;;3.78;0.90;;;;;;;19.27;100.00;97318.41;5037796;28;20042;-79
2021/08/08 08:48:04;;;;;;;4.32;1.00;;;;;;;19.64;100.00;97315.59;5034111;28;20044;-81
2021/08/08 08:50:32;;;;;;;3.63;0.80;;;;;;;20.10;100.00;97315.88;5053079;28;20491;-81
2021/08/08 08:53:00;;;;;;;2.67;0.68;;;;;;;19.85;100.00;97316.53;5052639;28;20053;-82
2021/08/08 08:55:26;;;;;;;3.92;0.80;;;;;;;20.21;100.00;97319.47;5035691;28;20068;-80
2021/08/08 08:57:54;;;;;;;1.80;0.63;;;;;;;20.23;100.00;97308.88;5052175;28;20048;-81
2021/08/08 09:00:23;;;;;;;11.30;0.80;;;;;;;20.25;100.00;97315.59;5015516;28;20439;-77
2021/08/08 09:02:52;;;;;;;2.92;0.70;;;;;;;20.27;100.00;97318.75;5039676;28;20474;-80
2021/08/08 09:05:22;;;;;;;2.78;0.73;;;;;;;20.09;100.00;97303.31;5033283;28;20037;-80
2021/08/08 09:07:49;;;;;;;5.43;0.85;;;;;;;19.98;100.00;97308.75;5048157;28;20142;-81
2021/08/08 09:10:17;;;;;;;5.18;0.90;;;;;;;20.20;100.00;97317.91;5053929;28;20060;-80
2021/08/08 09:12:55;;;;;;;4.78;0.70;;;;;;;20.16;100.00;97320.63;5057874;28;20056;-81
2021/08/08 09:15:34;;;;;;;5.03;0.85;;;;;;;20.17;100.00;97324.16;5031265;28;20049;-81
2021/08/08 09:18:14;;;;;;;1.83;0.82;;;;;;;20.02;100.00;97323.31;5062092;28;20049;-81
2021/08/08 09:20:42;;;;;;;3.50;0.77;;;;;;;20.74;100.00;97316.97;5050504;28;20052;-81
2021/08/08 09:23:09;;;;;;;1.40;0.57;;;;;;;21.00;100.00;97320.19;5052620;28;20053;-79
2021/08/08 09:25:37;;;;;;;2.83;0.60;;;;;;;21.01;100.00;97327.25;5055729;28;20060;-80
2021/08/08 09:28:10;;;;;;;2.00;0.70;;;;;;;21.11;100.00;97328.50;5054541;28;20049;-80
2021/08/08 09:30:40;;;;;;;5.05;0.73;;;;;;;21.08;100.00;97329.28;5017601;28;20529;-80
2021/08/08 09:33:09;;;;;;;1.88;0.60;;;;;;;21.20;100.00;97331.66;5030676;28;20057;-80
2021/08/08 09:35:42;;;;;;;1.80;0.70;;;;;;;21.06;100.00;97337.09;5016738;28;20591;-81
2021/08/08 09:38:11;;;;;;;4.57;0.70;;;;;;;21.27;100.00;97339.91;5050714;28;20053;-81
2021/08/08 09:40:43;;;;;;;3.55;0.70;;;;;;;21.03;100.00;97341.41;5053240;28;20049;-79
2021/08/08 09:43:12;;;;;;;2.25;0.60;;;;;;;21.53;100.00;97347.78;5067177;28;20045;-80
2021/08/08 09:45:42;;;;;;;4.78;0.70;;;;;;;22.04;100.00;97343.88;5052043;28;20082;-81
2021/08/08 09:48:12;;;;;;;1.05;0.60;;;;;;;22.22;100.00;97339.09;5034944;28;20041;-80
2021/08/08 09:50:41;;;;;;;7.22;0.85;;;;;;;22.31;100.00;97353.25;5031805;28;20037;-79
2021/08/08 09:53:19;;;;;;;4.57;0.90;;;;;;;22.48;100.00;97337.84;5028691;28;20507;-82
2021/08/08 09:55:46;;;;;;;2.67;0.80;;;;;;;22.90;100.00;97343.97;5031155;28;20123;-80
2021/08/08 09:58:24;;;;;;;5.22;0.95;;;;;;;23.16;100.00;97344.59;5032700;28;20477;-82
2021/08/08 10:00:58;;;;;;;2.95;0.75;;;;;;;23.99;100.00;97347.13;5029407;28;20044;-81
2021/08/08 10:03:25;;;;;;;3.88;0.80;;;;;;;24.00;100.00;97340.41;4999489;28;20065;-82
2021/08/08 10:05:55;;;;;;;2.00;0.70;;;;;;;24.03;100.00;97347.88;5032280;28;20068;-81
2021/08/08 10:08:24;;;;;;;2.45;0.80;;;;;;;24.00;100.00;97338.41;5030592;28;20044;-81
2021/08/08 10:10:53;;;;;;;2.60;0.70;;;;;;;24.27;100.00;97351.63;5044840;28;20045;-81
2021/08/08 10:13:35;;;;;;;1.92;0.90;;;;;;;24.37;95.03;97340.44;5014148;28;20059;-85
2021/08/08 10:16:09;;;;;;;3.58;0.73;;;;;;;25.04;94.86;97336.84;5029714;28;20419;-82
2021/08/08 10:18:46;;;;;;;0.90;0.57;;;;;;;24.92;91.22;97339.41;5030845;28;20049;-81
2021/08/08 10:21:14;;;;;;;3.40;0.80;;;;;;;24.86;91.19;97341.84;5040823;28;20047;-81
2021/08/08 10:23:43;;;;;;;10.02;1.17;;;;;;;22.68;100.00;97361.03;5012293;28;20049;-83
2021/08/08 10:26:09;;;;;;;2.80;0.70;;;;;;;23.87;100.00;97347.66;5031717;28;20053;-82
2021/08/08 10:28:36;;;;;;;2.53;0.93;;;;;;;24.71;79.88;97337.66;5024321;28;20045;-80
2021/08/08 10:31:07;;;;;;;3.00;0.85;;;;;;;23.44;98.84;97350.75;5030336;28;20049;-82
2021/08/08 10:33:54;;;;;;;2.92;0.70;;;;;;;23.98;96.71;97331.72;5029307;28;20144;-80
2021/08/08 10:36:40;;;;;;;4.38;0.77;;;;;;;25.17;82.56;97342.59;5030227;28;20045;-80
2021/08/08 10:39:16;;;;;;;1.23;0.60;;;;;;;25.64;69.89;97340.72;5027701;28;20034;-83
2021/08/08 10:41:58;;;;;;;1.85;0.75;;;;;;;26.60;58.35;97330.28;4994624;28;20053;-83
2021/08/08 10:44:26;;;;;;;1.90;0.60;;;;;;;25.77;65.26;97347.25;5011889;28;20438;-81
2021/08/08 10:46:54;;;;;;;3.95;0.60;;;;;;;25.92;69.95;97341.03;5018375;28;20116;-82
2021/08/08 10:49:28;;;;;;;2.88;0.80;;;;;;;26.21;64.76;97330.25;5054438;28;20037;-81
2021/08/08 10:52:05;;;;;;;1.73;0.70;;;;;;;25.10;71.18;97357.34;5070216;28;20056;-80
2021/08/08 10:54:49;;;;;;;8.50;1.00;;;;;;;23.30;95.85;97356.38;5032105;28;20049;-83
2021/08/08 10:57:18;;;;;;;2.05;0.85;;;;;;;22.32;100.00;97347.31;5034810;28;20042;-83
2021/08/08 10:59:46;;;;;;;2.90;0.65;;;;;;;21.99;100.00;97345.03;5032678;28;20045;-81
2021/08/08 11:02:15;;;;;;;1.80;0.68;;;;;;;22.28;100.00;97346.56;5034803;28;20060;-79
2021/08/08 11:04:43;;;;;;;6.97;0.82;;;;;;;22.28;100.00;97343.78;5043817;28;20037;-81
2021/08/08 11:07:11;;;;;;;2.03;0.80;;;;;;;22.25;100.00;97347.34;5025468;28;20056;-80
2021/08/08 11:09:39;;;;;;;1.55;0.70;;;;;;;21.76;100.00;97358.41;5017477;28;20056;-81
2021/08/08 11:12:08;;;;;;;2.83;0.60;;;;;;;21.47;100.00;97363.13;5035214;28;20448;-80
2021/08/08 11:14:34;;;;;;;5.45;0.70;;;;;;;21.44;100.00;97349.38;5036424;28;20526;-82
2021/08/08 11:17:06;;;;;;;2.42;1.00;;;;;;;21.80;100.00;97352.91;5048768;28;20073;-80
2021/08/08 11:19:38;;;;;;;1.83;0.77;;;;;;;23.17;100.00;97362.75;5054988;28;20045;-82
2021/08/08 11:22:14;;;;;;;3.33;0.70;;;;;;;23.38;100.00;97348.84;5054766;28;20120;-83
2021/08/08 11:24:43;;;;;;;4.00;0.90;;;;;;;25.87;83.53;97344.28;5051556;28;20110;-81
2021/08/08 11:27:13;;;;;;;3.10;0.80;;;;;;;26.93;61.68;97342.28;5050775;28;20052;-81
2021/08/08 11:29:39;;;;;;;1.92;0.70;;;;;;;26.74;62.90;97358.97;5047063;28;20049;-82
2021/08/08 11:32:07;;;;;;;2.72;0.88;;;;;;;24.82;69.98;97340.31;5065371;28;20572;-83